Terminal Aerodrome Forecast
Issued by NWS

Home | Current Version | Previous Version | Text Only | Print | Product List | Glossary On
Versions: 1 2 3 4 5 6 7 8 9 10 11 12 13 14 15 16 17 18
000
FTUS43 KIND 272300
TAFBMG
TAF
KBMG 272330Z 2800/2824 33004KT P6SM SCT040 SCT100 BKN250
     FM280200 01004KT P6SM SCT100 BKN250
     FM280400 03003KT 4SM BR SCT100 BKN200
     FM281500 10005KT P6SM SCT040 BKN150
      AMD LTD TO CLD VIS AND WIND 2801/2813=

USA.gov is the U.S. government's official web portal to all federal, state and local government web resources and services.